sensor_id;sensor_type;location;lat;lon;timestamp;P1;durP1;ratioP1;P2;durP2;ratioP2
35839;SDS011;35514;50.504;30.500;2022-12-29T00:00:11;13.30;;;5.35;;
35839;SDS011;35514;50.504;30.500;2022-12-29T00:02:41;15.00;;;5.60;;
35839;SDS011;35514;50.504;30.500;2022-12-29T00:05:08;17.90;;;5.38;;
35839;SDS011;35514;50.504;30.500;2022-12-29T00:07:36;15.68;;;6.15;;
35839;SDS011;35514;50.504;30.500;2022-12-29T00:10:04;14.40;;;6.03;;
35839;SDS011;35514;50.504;30.500;2022-12-29T00:12:31;16.65;;;6.38;;
35839;SDS011;35514;50.504;30.500;2022-12-29T00:15:13;10.95;;;5.63;;
35839;SDS011;35514;50.504;30.500;2022-12-29T00:18:00;16.60;;;6.93;;
35839;SDS011;35514;50.504;30.500;2022-12-29T00:20:28;23.90;;;7.30;;
35839;SDS011;35514;50.504;30.500;2022-12-29T00:23:13;23.67;;;7.15;;
35839;SDS011;35514;50.504;30.500;2022-12-29T00:25:58;13.70;;;6.47;;
35839;SDS011;35514;50.504;30.500;2022-12-29T00:28:47;23.27;;;6.38;;
35839;SDS011;35514;50.504;30.500;2022-12-29T00:31:32;22.67;;;7.75;;
35839;SDS011;35514;50.504;30.500;2022-12-29T00:34:18;16.27;;;7.07;;
35839;SDS011;35514;50.504;30.500;2022-12-29T00:37:03;22.58;;;7.13;;
35839;SDS011;35514;50.504;30.500;2022-12-29T00:39:32;17.23;;;6.53;;
35839;SDS011;35514;50.504;30.500;2022-12-29T00:42:16;24.08;;;7.40;;
35839;SDS011;35514;50.504;30.500;2022-12-29T00:45:00;18.63;;;6.93;;
35839;SDS011;35514;50.504;30.500;2022-12-29T00:47:28;20.73;;;7.10;;
35839;SDS011;35514;50.504;30.500;2022-12-29T00:49:56;16.20;;;7.18;;
35839;SDS011;35514;50.504;30.500;2022-12-29T00:52:23;18.17;;;7.38;;
35839;SDS011;35514;50.504;30.500;2022-12-29T00:54:51;19.80;;;7.70;;
35839;SDS011;35514;50.504;30.500;2022-12-29T00:57:18;13.30;;;6.50;;
35839;SDS011;35514;50.504;30.500;2022-12-29T00:59:46;17.58;;;6.40;;
35839;SDS011;35514;50.504;30.500;2022-12-29T01:02:13;13.13;;;5.20;;
35839;SDS011;35514;50.504;30.500;2022-12-29T01:04:42;12.85;;;5.85;;
35839;SDS011;35514;50.504;30.500;2022-12-29T01:07:10;15.48;;;6.43;;
35839;SDS011;35514;50.504;30.500;2022-12-29T01:09:38;22.98;;;6.82;;
35839;SDS011;35514;50.504;30.500;2022-12-29T01:12:23;14.20;;;6.50;;
35839;SDS011;35514;50.504;30.500;2022-12-29T01:15:05;14.43;;;6.00;;
35839;SDS011;35514;50.504;30.500;2022-12-29T01:17:32;14.68;;;5.53;;
35839;SDS011;35514;50.504;30.500;2022-12-29T01:20:00;10.93;;;5.47;;
35839;SDS011;35514;50.504;30.500;2022-12-29T01:22:29;12.55;;;5.40;;
35839;SDS011;35514;50.504;30.500;2022-12-29T01:24:56;13.10;;;5.63;;
35839;SDS011;35514;50.504;30.500;2022-12-29T01:27:24;13.48;;;5.65;;
35839;SDS011;35514;50.504;30.500;2022-12-29T01:29:51;13.85;;;5.85;;
35839;SDS011;35514;50.504;30.500;2022-12-29T01:32:19;12.95;;;5.65;;
35839;SDS011;35514;50.504;30.500;2022-12-29T01:34:46;14.07;;;5.57;;
35839;SDS011;35514;50.504;30.500;2022-12-29T01:37:14;17.83;;;5.28;;
35839;SDS011;35514;50.504;30.500;2022-12-29T01:39:44;16.20;;;5.18;;
35839;SDS011;35514;50.504;30.500;2022-12-29T01:42:12;13.95;;;5.55;;
35839;SDS011;35514;50.504;30.500;2022-12-29T01:44:50;14.63;;;5.13;;
35839;SDS011;35514;50.504;30.500;2022-12-29T01:47:20;16.90;;;6.05;;
35839;SDS011;35514;50.504;30.500;2022-12-29T01:49:57;16.20;;;5.82;;
35839;SDS011;35514;50.504;30.500;2022-12-29T01:52:26;8.90;;;4.43;;
35839;SDS011;35514;50.504;30.500;2022-12-29T01:54:57;9.75;;;4.40;;
35839;SDS011;35514;50.504;30.500;2022-12-29T01:57:27;11.45;;;5.45;;
35839;SDS011;35514;50.504;30.500;2022-12-29T01:59:56;12.57;;;4.68;;
35839;SDS011;35514;50.504;30.500;2022-12-29T02:02:26;15.95;;;5.60;;
35839;SDS011;35514;50.504;30.500;2022-12-29T02:04:58;13.07;;;5.10;;
35839;SDS011;35514;50.504;30.500;2022-12-29T02:07:30;11.40;;;4.90;;
35839;SDS011;35514;50.504;30.500;2022-12-29T02:09:59;19.85;;;5.65;;
35839;SDS011;35514;50.504;30.500;2022-12-29T02:12:28;7.97;;;4.63;;
35839;SDS011;35514;50.504;30.500;2022-12-29T02:14:56;10.13;;;4.95;;
35839;SDS011;35514;50.504;30.500;2022-12-29T02:17:28;16.88;;;5.65;;
35839;SDS011;35514;50.504;30.500;2022-12-29T02:22:48;13.43;;;5.30;;
35839;SDS011;35514;50.504;30.500;2022-12-29T02:25:43;13.10;;;4.93;;
35839;SDS011;35514;50.504;30.500;2022-12-29T02:31:04;13.65;;;5.55;;
35839;SDS011;35514;50.504;30.500;2022-12-29T02:33:38;10.95;;;4.75;;
35839;SDS011;35514;50.504;30.500;2022-12-29T02:36:11;7.93;;;4.03;;
35839;SDS011;35514;50.504;30.500;2022-12-29T02:38:48;18.67;;;5.80;;
35839;SDS011;35514;50.504;30.500;2022-12-29T02:41:17;13.10;;;5.05;;
35839;SDS011;35514;50.504;30.500;2022-12-29T02:43:48;15.63;;;5.15;;
35839;SDS011;35514;50.504;30.500;2022-12-29T02:46:19;13.90;;;5.15;;
35839;SDS011;35514;50.504;30.500;2022-12-29T02:48:50;20.17;;;5.25;;
35839;SDS011;35514;50.504;30.500;2022-12-29T02:51:20;12.27;;;4.32;;
35839;SDS011;35514;50.504;30.500;2022-12-29T02:53:49;10.73;;;4.45;;
35839;SDS011;35514;50.504;30.500;2022-12-29T02:56:35;11.95;;;5.25;;
35839;SDS011;35514;50.504;30.500;2022-12-29T02:59:03;10.63;;;4.85;;
35839;SDS011;35514;50.504;30.500;2022-12-29T03:01:36;9.90;;;5.20;;
35839;SDS011;35514;50.504;30.500;2022-12-29T03:04:29;9.15;;;4.82;;
35839;SDS011;35514;50.504;30.500;2022-12-29T03:07:01;10.32;;;5.28;;
35839;SDS011;35514;50.504;30.500;2022-12-29T03:09:32;9.10;;;4.97;;
35839;SDS011;35514;50.504;30.500;2022-12-29T03:12:05;12.43;;;5.57;;
35839;SDS011;35514;50.504;30.500;2022-12-29T03:17:45;9.98;;;5.28;;
35839;SDS011;35514;50.504;30.500;2022-12-29T03:20:18;17.45;;;4.97;;
35839;SDS011;35514;50.504;30.500;2022-12-29T03:22:54;16.20;;;5.60;;
35839;SDS011;35514;50.504;30.500;2022-12-29T03:25:24;12.68;;;5.15;;
35839;SDS011;35514;50.504;30.500;2022-12-29T03:28:00;15.60;;;5.53;;
35839;SDS011;35514;50.504;30.500;2022-12-29T03:30:28;12.02;;;4.90;;
35839;SDS011;35514;50.504;30.500;2022-12-29T03:32:58;15.90;;;4.88;;
35839;SDS011;35514;50.504;30.500;2022-12-29T03:35:29;13.32;;;5.32;;
35839;SDS011;35514;50.504;30.500;2022-12-29T03:37:59;11.20;;;4.95;;
35839;SDS011;35514;50.504;30.500;2022-12-29T03:40:34;13.95;;;5.05;;
35839;SDS011;35514;50.504;30.500;2022-12-29T03:43:04;11.32;;;5.13;;
35839;SDS011;35514;50.504;30.500;2022-12-29T03:45:31;12.85;;;5.43;;
35839;SDS011;35514;50.504;30.500;2022-12-29T03:48:00;12.77;;;5.93;;
35839;SDS011;35514;50.504;30.500;2022-12-29T03:50:28;13.23;;;5.63;;
35839;SDS011;35514;50.504;30.500;2022-12-29T03:52:55;17.13;;;5.57;;
35839;SDS011;35514;50.504;30.500;2022-12-29T03:55:23;11.82;;;5.20;;
35839;SDS011;35514;50.504;30.500;2022-12-29T03:57:51;12.30;;;4.65;;
35839;SDS011;35514;50.504;30.500;2022-12-29T04:00:18;12.77;;;5.10;;
35839;SDS011;35514;50.504;30.500;2022-12-29T04:02:48;9.63;;;5.60;;
35839;SDS011;35514;50.504;30.500;2022-12-29T04:05:17;12.05;;;5.07;;
35839;SDS011;35514;50.504;30.500;2022-12-29T04:07:45;15.63;;;5.78;;
35839;SDS011;35514;50.504;30.500;2022-12-29T04:10:13;16.05;;;5.75;;
35839;SDS011;35514;50.504;30.500;2022-12-29T04:12:41;13.90;;;5.97;;
35839;SDS011;35514;50.504;30.500;2022-12-29T04:15:09;13.57;;;6.22;;
35839;SDS011;35514;50.504;30.500;2022-12-29T04:17:37;10.98;;;5.55;;
35839;SDS011;35514;50.504;30.500;2022-12-29T04:20:05;15.57;;;5.75;;
35839;SDS011;35514;50.504;30.500;2022-12-29T04:22:58;13.00;;;5.40;;
35839;SDS011;35514;50.504;30.500;2022-12-29T04:25:25;14.93;;;5.97;;
35839;SDS011;35514;50.504;30.500;2022-12-29T04:27:53;15.18;;;5.90;;
35839;SDS011;35514;50.504;30.500;2022-12-29T04:30:20;13.68;;;6.65;;
35839;SDS011;35514;50.504;30.500;2022-12-29T04:32:48;19.08;;;6.65;;
35839;SDS011;35514;50.504;30.500;2022-12-29T04:35:16;15.85;;;6.75;;
35839;SDS011;35514;50.504;30.500;2022-12-29T04:37:43;14.80;;;5.68;;
35839;SDS011;35514;50.504;30.500;2022-12-29T04:40:12;12.90;;;6.00;;
35839;SDS011;35514;50.504;30.500;2022-12-29T04:42:40;16.83;;;5.95;;
35839;SDS011;35514;50.504;30.500;2022-12-29T04:45:08;17.65;;;6.35;;
35839;SDS011;35514;50.504;30.500;2022-12-29T04:47:35;13.50;;;6.32;;
35839;SDS011;35514;50.504;30.500;2022-12-29T04:50:03;18.00;;;6.30;;
35839;SDS011;35514;50.504;30.500;2022-12-29T04:52:31;14.00;;;5.63;;
35839;SDS011;35514;50.504;30.500;2022-12-29T04:54:59;15.38;;;5.82;;
35839;SDS011;35514;50.504;30.500;2022-12-29T04:57:29;15.38;;;6.28;;
35839;SDS011;35514;50.504;30.500;2022-12-29T04:59:56;22.92;;;7.43;;
35839;SDS011;35514;50.504;30.500;2022-12-29T05:02:24;15.98;;;6.75;;
35839;SDS011;35514;50.504;30.500;2022-12-29T05:04:52;18.75;;;7.75;;
35839;SDS011;35514;50.504;30.500;2022-12-29T05:07:19;14.90;;;6.55;;
35839;SDS011;35514;50.504;30.500;2022-12-29T05:09:47;15.82;;;6.70;;
35839;SDS011;35514;50.504;30.500;2022-12-29T05:12:14;20.50;;;7.03;;
35839;SDS011;35514;50.504;30.500;2022-12-29T05:14:47;16.92;;;6.20;;
35839;SDS011;35514;50.504;30.500;2022-12-29T05:20:18;13.18;;;5.90;;
35839;SDS011;35514;50.504;30.500;2022-12-29T05:22:46;15.63;;;6.90;;
35839;SDS011;35514;50.504;30.500;2022-12-29T05:25:14;17.80;;;6.75;;
35839;SDS011;35514;50.504;30.500;2022-12-29T05:27:42;18.83;;;7.55;;
35839;SDS011;35514;50.504;30.500;2022-12-29T05:30:12;22.25;;;7.10;;
35839;SDS011;35514;50.504;30.500;2022-12-29T05:32:40;18.98;;;7.00;;
35839;SDS011;35514;50.504;30.500;2022-12-29T05:35:08;17.17;;;7.00;;
35839;SDS011;35514;50.504;30.500;2022-12-29T05:37:36;16.33;;;6.07;;
35839;SDS011;35514;50.504;30.500;2022-12-29T05:40:03;13.82;;;5.80;;
35839;SDS011;35514;50.504;30.500;2022-12-29T05:42:31;27.80;;;7.32;;
35839;SDS011;35514;50.504;30.500;2022-12-29T05:44:59;18.02;;;5.82;;
35839;SDS011;35514;50.504;30.500;2022-12-29T05:47:28;18.23;;;7.07;;
35839;SDS011;35514;50.504;30.500;2022-12-29T05:49:55;16.23;;;6.70;;
35839;SDS011;35514;50.504;30.500;2022-12-29T05:55:13;11.65;;;5.78;;
35839;SDS011;35514;50.504;30.500;2022-12-29T05:57:41;17.85;;;7.00;;
35839;SDS011;35514;50.504;30.500;2022-12-29T06:00:12;12.45;;;6.35;;
35839;SDS011;35514;50.504;30.500;2022-12-29T06:02:48;14.52;;;5.95;;
35839;SDS011;35514;50.504;30.500;2022-12-29T06:05:16;11.65;;;6.18;;
35839;SDS011;35514;50.504;30.500;2022-12-29T06:07:44;18.88;;;6.55;;
35839;SDS011;35514;50.504;30.500;2022-12-29T06:10:12;18.42;;;6.78;;
35839;SDS011;35514;50.504;30.500;2022-12-29T06:12:39;17.67;;;7.38;;
35839;SDS011;35514;50.504;30.500;2022-12-29T06:15:07;18.38;;;6.78;;
35839;SDS011;35514;50.504;30.500;2022-12-29T06:17:35;22.90;;;6.82;;
35839;SDS011;35514;50.504;30.500;2022-12-29T06:20:05;17.83;;;7.80;;
35839;SDS011;35514;50.504;30.500;2022-12-29T06:22:33;18.63;;;7.35;;
35839;SDS011;35514;50.504;30.500;2022-12-29T06:25:01;16.58;;;6.57;;
35839;SDS011;35514;50.504;30.500;2022-12-29T06:27:31;16.95;;;7.45;;
35839;SDS011;35514;50.504;30.500;2022-12-29T06:29:59;21.38;;;7.90;;
35839;SDS011;35514;50.504;30.500;2022-12-29T06:32:27;23.23;;;7.60;;
35839;SDS011;35514;50.504;30.500;2022-12-29T06:34:54;20.15;;;7.47;;
35839;SDS011;35514;50.504;30.500;2022-12-29T06:37:23;27.27;;;6.68;;
35839;SDS011;35514;50.504;30.500;2022-12-29T06:39:51;23.85;;;7.40;;
35839;SDS011;35514;50.504;30.500;2022-12-29T06:42:19;21.20;;;8.48;;
35839;SDS011;35514;50.504;30.500;2022-12-29T06:44:47;24.42;;;7.72;;
35839;SDS011;35514;50.504;30.500;2022-12-29T06:47:16;25.70;;;8.38;;
35839;SDS011;35514;50.504;30.500;2022-12-29T06:49:44;24.67;;;8.75;;
35839;SDS011;35514;50.504;30.500;2022-12-29T06:52:11;25.05;;;8.90;;
35839;SDS011;35514;50.504;30.500;2022-12-29T06:54:41;27.20;;;8.40;;
35839;SDS011;35514;50.504;30.500;2022-12-29T06:57:08;17.88;;;7.53;;
35839;SDS011;35514;50.504;30.500;2022-12-29T06:59:36;22.45;;;8.38;;
35839;SDS011;35514;50.504;30.500;2022-12-29T07:02:04;20.42;;;8.57;;
35839;SDS011;35514;50.504;30.500;2022-12-29T07:16:52;25.25;;;8.60;;
35839;SDS011;35514;50.504;30.500;2022-12-29T07:19:20;20.13;;;8.02;;
35839;SDS011;35514;50.504;30.500;2022-12-29T07:21:47;31.23;;;9.02;;
35839;SDS011;35514;50.504;30.500;2022-12-29T07:24:15;31.35;;;9.77;;
35839;SDS011;35514;50.504;30.500;2022-12-29T07:26:43;21.58;;;8.70;;
35839;SDS011;35514;50.504;30.500;2022-12-29T07:29:10;19.20;;;8.07;;
35839;SDS011;35514;50.504;30.500;2022-12-29T07:31:38;20.15;;;8.35;;
35839;SDS011;35514;50.504;30.500;2022-12-29T07:34:08;24.85;;;9.75;;
35839;SDS011;35514;50.504;30.500;2022-12-29T07:36:36;29.92;;;8.60;;
35839;SDS011;35514;50.504;30.500;2022-12-29T07:39:03;19.92;;;9.13;;
35839;SDS011;35514;50.504;30.500;2022-12-29T07:41:31;22.67;;;9.88;;
35839;SDS011;35514;50.504;30.500;2022-12-29T07:43:59;24.45;;;10.00;;
35839;SDS011;35514;50.504;30.500;2022-12-29T07:46:26;41.28;;;10.35;;
35839;SDS011;35514;50.504;30.500;2022-12-29T07:49:16;28.25;;;10.18;;
35839;SDS011;35514;50.504;30.500;2022-12-29T07:51:44;29.23;;;11.77;;
35839;SDS011;35514;50.504;30.500;2022-12-29T07:54:12;25.23;;;9.88;;
35839;SDS011;35514;50.504;30.500;2022-12-29T07:56:39;25.98;;;10.50;;
35839;SDS011;35514;50.504;30.500;2022-12-29T07:59:07;33.40;;;10.55;;
35839;SDS011;35514;50.504;30.500;2022-12-29T08:01:38;25.05;;;10.57;;
35839;SDS011;35514;50.504;30.500;2022-12-29T08:04:06;37.28;;;10.13;;
35839;SDS011;35514;50.504;30.500;2022-12-29T08:06:35;26.63;;;10.00;;
35839;SDS011;35514;50.504;30.500;2022-12-29T08:09:04;23.15;;;8.95;;
35839;SDS011;35514;50.504;30.500;2022-12-29T08:11:44;38.83;;;9.85;;
35839;SDS011;35514;50.504;30.500;2022-12-29T08:14:12;22.38;;;9.32;;
35839;SDS011;35514;50.504;30.500;2022-12-29T08:16:40;31.30;;;9.55;;
35839;SDS011;35514;50.504;30.500;2022-12-29T08:19:09;23.08;;;10.20;;
35839;SDS011;35514;50.504;30.500;2022-12-29T08:21:39;26.50;;;9.88;;
35839;SDS011;35514;50.504;30.500;2022-12-29T08:24:07;21.58;;;8.70;;
35839;SDS011;35514;50.504;30.500;2022-12-29T08:26:35;23.75;;;10.15;;
35839;SDS011;35514;50.504;30.500;2022-12-29T08:29:03;26.85;;;9.48;;
35839;SDS011;35514;50.504;30.500;2022-12-29T08:31:30;24.60;;;9.25;;
35839;SDS011;35514;50.504;30.500;2022-12-29T08:33:58;28.77;;;8.70;;
35839;SDS011;35514;50.504;30.500;2022-12-29T08:36:27;19.40;;;9.23;;
35839;SDS011;35514;50.504;30.500;2022-12-29T08:38:56;27.45;;;9.75;;
35839;SDS011;35514;50.504;30.500;2022-12-29T08:41:24;24.77;;;11.00;;
35839;SDS011;35514;50.504;30.500;2022-12-29T08:43:51;28.02;;;10.85;;
35839;SDS011;35514;50.504;30.500;2022-12-29T08:46:19;25.80;;;10.77;;
35839;SDS011;35514;50.504;30.500;2022-12-29T08:48:47;23.85;;;9.85;;
35839;SDS011;35514;50.504;30.500;2022-12-29T08:51:14;22.75;;;9.95;;
35839;SDS011;35514;50.504;30.500;2022-12-29T08:53:49;21.98;;;9.80;;
35839;SDS011;35514;50.504;30.500;2022-12-29T08:56:19;30.80;;;10.77;;
35839;SDS011;35514;50.504;30.500;2022-12-29T08:58:46;28.75;;;9.13;;
35839;SDS011;35514;50.504;30.500;2022-12-29T09:01:14;27.15;;;9.48;;
35839;SDS011;35514;50.504;30.500;2022-12-29T09:03:44;21.08;;;8.88;;
35839;SDS011;35514;50.504;30.500;2022-12-29T09:06:31;21.13;;;8.70;;
35839;SDS011;35514;50.504;30.500;2022-12-29T09:09:05;25.45;;;8.98;;
35839;SDS011;35514;50.504;30.500;2022-12-29T09:11:34;32.30;;;11.52;;
35839;SDS011;35514;50.504;30.500;2022-12-29T09:14:02;24.58;;;9.48;;
35839;SDS011;35514;50.504;30.500;2022-12-29T09:16:29;23.67;;;9.48;;
35839;SDS011;35514;50.504;30.500;2022-12-29T09:18:57;30.27;;;11.15;;
35839;SDS011;35514;50.504;30.500;2022-12-29T09:21:25;23.65;;;9.45;;
35839;SDS011;35514;50.504;30.500;2022-12-29T09:23:52;20.42;;;8.75;;
35839;SDS011;35514;50.504;30.500;2022-12-29T09:26:20;27.30;;;9.32;;
35839;SDS011;35514;50.504;30.500;2022-12-29T09:28:49;31.17;;;8.98;;
35839;SDS011;35514;50.504;30.500;2022-12-29T09:31:16;21.55;;;10.02;;
35839;SDS011;35514;50.504;30.500;2022-12-29T09:33:44;27.45;;;10.98;;
35839;SDS011;35514;50.504;30.500;2022-12-29T09:36:12;21.88;;;7.75;;
35839;SDS011;35514;50.504;30.500;2022-12-29T09:38:40;26.63;;;8.30;;
35839;SDS011;35514;50.504;30.500;2022-12-29T09:41:10;22.80;;;7.70;;
35839;SDS011;35514;50.504;30.500;2022-12-29T09:43:44;21.38;;;8.02;;
35839;SDS011;35514;50.504;30.500;2022-12-29T09:46:17;19.63;;;8.27;;
35839;SDS011;35514;50.504;30.500;2022-12-29T09:48:47;24.35;;;8.98;;
35839;SDS011;35514;50.504;30.500;2022-12-29T09:51:17;20.08;;;8.90;;
35839;SDS011;35514;50.504;30.500;2022-12-29T09:53:48;25.48;;;9.07;;
35839;SDS011;35514;50.504;30.500;2022-12-29T09:56:18;37.70;;;9.85;;
35839;SDS011;35514;50.504;30.500;2022-12-29T09:58:47;21.23;;;8.43;;
35839;SDS011;35514;50.504;30.500;2022-12-29T10:01:21;22.40;;;9.07;;
35839;SDS011;35514;50.504;30.500;2022-12-29T10:03:53;20.38;;;8.63;;
35839;SDS011;35514;50.504;30.500;2022-12-29T10:06:22;20.85;;;8.68;;
35839;SDS011;35514;50.504;30.500;2022-12-29T10:08:53;18.02;;;8.73;;
35839;SDS011;35514;50.504;30.500;2022-12-29T10:11:29;21.55;;;8.93;;
35839;SDS011;35514;50.504;30.500;2022-12-29T10:14:03;25.30;;;8.23;;
35839;SDS011;35514;50.504;30.500;2022-12-29T10:16:43;29.48;;;10.35;;
35839;SDS011;35514;50.504;30.500;2022-12-29T10:19:26;30.27;;;10.40;;
35839;SDS011;35514;50.504;30.500;2022-12-29T10:22:00;25.13;;;9.30;;
35839;SDS011;35514;50.504;30.500;2022-12-29T10:24:31;33.92;;;11.10;;
35839;SDS011;35514;50.504;30.500;2022-12-29T10:27:00;30.15;;;10.55;;
35839;SDS011;35514;50.504;30.500;2022-12-29T10:29:29;36.00;;;12.00;;
35839;SDS011;35514;50.504;30.500;2022-12-29T10:32:02;30.75;;;11.75;;
35839;SDS011;35514;50.504;30.500;2022-12-29T10:34:33;36.55;;;10.95;;
35839;SDS011;35514;50.504;30.500;2022-12-29T10:37:02;29.60;;;11.85;;
35839;SDS011;35514;50.504;30.500;2022-12-29T10:39:32;24.05;;;9.23;;
35839;SDS011;35514;50.504;30.500;2022-12-29T10:42:03;30.65;;;10.10;;
35839;SDS011;35514;50.504;30.500;2022-12-29T10:44:32;27.95;;;10.35;;
35839;SDS011;35514;50.504;30.500;2022-12-29T10:47:03;28.30;;;11.23;;
35839;SDS011;35514;50.504;30.500;2022-12-29T10:49:32;28.33;;;11.23;;
35839;SDS011;35514;50.504;30.500;2022-12-29T10:52:04;24.67;;;10.48;;
35839;SDS011;35514;50.504;30.500;2022-12-29T10:54:36;25.17;;;10.00;;
35839;SDS011;35514;50.504;30.500;2022-12-29T10:57:08;23.77;;;10.32;;
35839;SDS011;35514;50.504;30.500;2022-12-29T10:59:36;32.65;;;11.45;;
35839;SDS011;35514;50.504;30.500;2022-12-29T11:02:12;25.00;;;11.10;;
35839;SDS011;35514;50.504;30.500;2022-12-29T11:04:46;35.90;;;11.85;;
35839;SDS011;35514;50.504;30.500;2022-12-29T11:07:18;27.40;;;9.85;;
35839;SDS011;35514;50.504;30.500;2022-12-29T11:09:52;32.63;;;9.68;;
35839;SDS011;35514;50.504;30.500;2022-12-29T11:12:22;20.73;;;9.77;;
35839;SDS011;35514;50.504;30.500;2022-12-29T11:15:11;28.90;;;9.45;;
35839;SDS011;35514;50.504;30.500;2022-12-29T11:17:44;21.73;;;9.13;;
35839;SDS011;35514;50.504;30.500;2022-12-29T11:20:19;25.00;;;9.90;;
35839;SDS011;35514;50.504;30.500;2022-12-29T11:22:52;27.65;;;9.93;;
35839;SDS011;35514;50.504;30.500;2022-12-29T11:25:20;28.30;;;9.75;;
35839;SDS011;35514;50.504;30.500;2022-12-29T11:27:54;26.63;;;9.32;;
35839;SDS011;35514;50.504;30.500;2022-12-29T11:30:23;26.63;;;9.55;;
35839;SDS011;35514;50.504;30.500;2022-12-29T11:32:53;24.90;;;9.05;;
35839;SDS011;35514;50.504;30.500;2022-12-29T11:35:31;24.15;;;9.23;;
35839;SDS011;35514;50.504;30.500;2022-12-29T11:37:59;22.85;;;9.25;;
35839;SDS011;35514;50.504;30.500;2022-12-29T11:40:28;26.95;;;10.27;;
35839;SDS011;35514;50.504;30.500;2022-12-29T11:42:57;26.25;;;9.30;;
35839;SDS011;35514;50.504;30.500;2022-12-29T11:45:26;31.33;;;8.80;;
35839;SDS011;35514;50.504;30.500;2022-12-29T11:47:57;24.73;;;9.23;;
35839;SDS011;35514;50.504;30.500;2022-12-29T11:50:26;22.13;;;9.68;;
35839;SDS011;35514;50.504;30.500;2022-12-29T11:52:57;26.88;;;9.27;;
35839;SDS011;35514;50.504;30.500;2022-12-29T11:55:26;24.50;;;9.25;;
35839;SDS011;35514;50.504;30.500;2022-12-29T11:57:55;20.23;;;9.32;;
35839;SDS011;35514;50.504;30.500;2022-12-29T12:00:25;26.85;;;9.02;;
35839;SDS011;35514;50.504;30.500;2022-12-29T12:02:57;29.67;;;9.55;;
35839;SDS011;35514;50.504;30.500;2022-12-29T12:05:33;34.13;;;9.52;;
35839;SDS011;35514;50.504;30.500;2022-12-29T12:08:04;23.05;;;9.32;;
35839;SDS011;35514;50.504;30.500;2022-12-29T12:10:34;22.65;;;9.68;;
35839;SDS011;35514;50.504;30.500;2022-12-29T12:13:06;22.88;;;9.18;;
35839;SDS011;35514;50.504;30.500;2022-12-29T12:15:36;30.25;;;10.35;;
35839;SDS011;35514;50.504;30.500;2022-12-29T12:18:14;24.77;;;10.52;;
35839;SDS011;35514;50.504;30.500;2022-12-29T12:20:45;25.02;;;10.20;;
35839;SDS011;35514;50.504;30.500;2022-12-29T12:23:22;26.40;;;10.52;;
35839;SDS011;35514;50.504;30.500;2022-12-29T12:25:56;23.98;;;10.38;;
35839;SDS011;35514;50.504;30.500;2022-12-29T12:28:26;27.05;;;10.77;;
35839;SDS011;35514;50.504;30.500;2022-12-29T12:31:02;28.00;;;10.57;;
35839;SDS011;35514;50.504;30.500;2022-12-29T12:33:33;25.80;;;10.10;;
35839;SDS011;35514;50.504;30.500;2022-12-29T12:36:09;26.80;;;10.13;;
35839;SDS011;35514;50.504;30.500;2022-12-29T12:38:42;30.55;;;10.65;;
35839;SDS011;35514;50.504;30.500;2022-12-29T12:41:16;28.67;;;10.35;;
35839;SDS011;35514;50.504;30.500;2022-12-29T12:43:49;36.05;;;10.30;;
35839;SDS011;35514;50.504;30.500;2022-12-29T12:49:11;32.35;;;10.95;;
35839;SDS011;35514;50.504;30.500;2022-12-29T12:51:44;38.20;;;12.25;;
35839;SDS011;35514;50.504;30.500;2022-12-29T12:54:22;29.30;;;11.65;;
35839;SDS011;35514;50.504;30.500;2022-12-29T12:56:57;32.60;;;12.23;;
35839;SDS011;35514;50.504;30.500;2022-12-29T12:59:30;30.13;;;11.77;;
35839;SDS011;35514;50.504;30.500;2022-12-29T13:02:01;30.23;;;12.00;;
35839;SDS011;35514;50.504;30.500;2022-12-29T13:04:39;27.63;;;11.85;;
35839;SDS011;35514;50.504;30.500;2022-12-29T13:07:12;38.97;;;13.40;;
35839;SDS011;35514;50.504;30.500;2022-12-29T13:09:45;48.33;;;14.13;;
35839;SDS011;35514;50.504;30.500;2022-12-29T13:12:19;37.45;;;14.10;;
35839;SDS011;35514;50.504;30.500;2022-12-29T13:14:54;45.22;;;13.52;;
35839;SDS011;35514;50.504;30.500;2022-12-29T13:17:27;38.88;;;13.85;;
35839;SDS011;35514;50.504;30.500;2022-12-29T13:20:00;37.53;;;11.90;;
35839;SDS011;35514;50.504;30.500;2022-12-29T13:22:30;31.70;;;10.90;;
35839;SDS011;35514;50.504;30.500;2022-12-29T13:25:06;30.05;;;11.13;;
35839;SDS011;35514;50.504;30.500;2022-12-29T13:27:40;32.83;;;12.20;;
35839;SDS011;35514;50.504;30.500;2022-12-29T13:30:10;28.95;;;10.95;;
35839;SDS011;35514;50.504;30.500;2022-12-29T13:32:44;28.42;;;11.10;;
35839;SDS011;35514;50.504;30.500;2022-12-29T13:35:19;40.10;;;11.88;;
35839;SDS011;35514;50.504;30.500;2022-12-29T13:37:53;24.98;;;9.50;;
35839;SDS011;35514;50.504;30.500;2022-12-29T13:40:23;27.88;;;10.85;;
35839;SDS011;35514;50.504;30.500;2022-12-29T13:42:52;27.92;;;10.65;;
35839;SDS011;35514;50.504;30.500;2022-12-29T13:45:24;26.58;;;11.50;;
35839;SDS011;35514;50.504;30.500;2022-12-29T13:47:53;29.33;;;10.80;;
35839;SDS011;35514;50.504;30.500;2022-12-29T13:50:24;25.67;;;10.05;;
35839;SDS011;35514;50.504;30.500;2022-12-29T13:52:55;25.67;;;11.30;;
35839;SDS011;35514;50.504;30.500;2022-12-29T13:55:27;29.27;;;9.68;;
35839;SDS011;35514;50.504;30.500;2022-12-29T13:57:59;28.13;;;11.07;;
35839;SDS011;35514;50.504;30.500;2022-12-29T14:00:28;25.58;;;10.30;;
35839;SDS011;35514;50.504;30.500;2022-12-29T14:03:04;27.05;;;10.93;;
35839;SDS011;35514;50.504;30.500;2022-12-29T14:05:40;29.08;;;11.10;;
35839;SDS011;35514;50.504;30.500;2022-12-29T14:08:14;24.63;;;11.13;;
35839;SDS011;35514;50.504;30.500;2022-12-29T14:10:45;28.73;;;10.68;;
35839;SDS011;35514;50.504;30.500;2022-12-29T14:13:14;36.00;;;11.13;;
35839;SDS011;35514;50.504;30.500;2022-12-29T14:15:43;27.27;;;10.27;;
35839;SDS011;35514;50.504;30.500;2022-12-29T14:18:13;25.13;;;9.70;;
35839;SDS011;35514;50.504;30.500;2022-12-29T14:20:54;28.63;;;10.15;;
35839;SDS011;35514;50.504;30.500;2022-12-29T14:23:27;38.67;;;10.43;;
35839;SDS011;35514;50.504;30.500;2022-12-29T14:25:57;24.42;;;9.75;;
35839;SDS011;35514;50.504;30.500;2022-12-29T14:28:25;23.10;;;9.23;;
35839;SDS011;35514;50.504;30.500;2022-12-29T14:30:54;24.90;;;10.45;;
35839;SDS011;35514;50.504;30.500;2022-12-29T14:33:23;23.33;;;10.23;;
35839;SDS011;35514;50.504;30.500;2022-12-29T14:35:55;27.80;;;9.90;;
35839;SDS011;35514;50.504;30.500;2022-12-29T14:38:24;25.30;;;9.10;;
35839;SDS011;35514;50.504;30.500;2022-12-29T14:40:53;26.35;;;10.60;;
35839;SDS011;35514;50.504;30.500;2022-12-29T14:43:53;34.38;;;10.98;;
35839;SDS011;35514;50.504;30.500;2022-12-29T14:46:24;30.08;;;10.75;;
35839;SDS011;35514;50.504;30.500;2022-12-29T14:48:56;30.70;;;10.63;;
35839;SDS011;35514;50.504;30.500;2022-12-29T14:51:30;32.20;;;12.55;;
35839;SDS011;35514;50.504;30.500;2022-12-29T14:53:59;38.53;;;12.15;;
35839;SDS011;35514;50.504;30.500;2022-12-29T14:56:27;29.67;;;11.05;;
35839;SDS011;35514;50.504;30.500;2022-12-29T14:58:57;35.92;;;11.32;;
35839;SDS011;35514;50.504;30.500;2022-12-29T15:01:28;32.28;;;10.60;;
35839;SDS011;35514;50.504;30.500;2022-12-29T15:04:00;23.75;;;10.07;;
35839;SDS011;35514;50.504;30.500;2022-12-29T15:06:31;27.60;;;10.45;;
35839;SDS011;35514;50.504;30.500;2022-12-29T15:09:04;25.55;;;10.52;;